TimeCDT,TemperatureF,Dew PointF,Humidity,Sea Level PressureIn,VisibilityMPH,Wind Direction,Wind SpeedMPH,Gust SpeedMPH,PrecipitationIn,Events,Conditions,WindDirDegrees,DateUTC
12:53 AM,48.0,46.0,93,29.95,10.0,Calm,Calm,-,N/A,,Clear,0,2012-10-03 05:53:00
1:53 AM,46.9,45.0,93,29.96,10.0,South,3.5,-,N/A,,Clear,180,2012-10-03 06:53:00
2:53 AM,46.9,45.0,93,29.96,10.0,Calm,Calm,-,N/A,,Clear,0,2012-10-03 07:53:00
3:53 AM,46.0,44.1,93,29.96,10.0,Calm,Calm,-,N/A,,Clear,0,2012-10-03 08:53:00
4:53 AM,45.0,43.0,93,29.97,10.0,Calm,Calm,-,N/A,,Clear,0,2012-10-03 09:53:00
5:53 AM,45.0,44.1,97,29.99,10.0,Calm,Calm,-,N/A,,Clear,0,2012-10-03 10:53:00
6:53 AM,46.9,45.0,93,30.00,10.0,Calm,Calm,-,N/A,,Clear,0,2012-10-03 11:53:00
7:53 AM,48.0,46.0,93,30.01,10.0,Calm,Calm,-,N/A,,Clear,0,2012-10-03 12:53:00
8:53 AM,51.1,48.0,89,30.02,10.0,Calm,Calm,-,N/A,,Clear,0,2012-10-03 13:53:00
9:53 AM,61.0,53.1,75,30.03,10.0,Calm,Calm,-,N/A,,Clear,0,2012-10-03 14:53:00
10:53 AM,72.0,48.9,44,30.02,10.0,SW,8.1,-,N/A,,Clear,230,2012-10-03 15:53:00
11:53 AM,72.0,46.0,40,30.02,10.0,WSW,10.4,-,N/A,,Partly Cloudy,250,2012-10-03 16:53:00
12:53 PM,75.0,46.9,37,30.00,10.0,SW,6.9,-,N/A,,Partly Cloudy,220,2012-10-03 17:53:00
1:53 PM,73.9,48.9,41,29.98,10.0,SW,10.4,-,N/A,,Partly Cloudy,230,2012-10-03 18:53:00
2:53 PM,75.9,51.1,42,29.96,10.0,South,12.7,20.7,N/A,,Scattered Clouds,180,2012-10-03 19:53:00
3:53 PM,75.0,50.0,41,29.96,10.0,South,12.7,20.7,N/A,,Scattered Clouds,190,2012-10-03 20:53:00
4:53 PM,75.0,52.0,44,29.97,10.0,South,12.7,-,N/A,,Mostly Cloudy,190,2012-10-03 21:53:00
5:53 PM,73.0,53.1,49,29.98,10.0,South,10.4,31.1,N/A,,Partly Cloudy,180,2012-10-03 22:53:00
6:53 PM,66.9,53.1,61,29.99,10.0,SSE,4.6,-,N/A,,Clear,150,2012-10-03 23:53:00
7:53 PM,64.9,53.1,65,30.00,10.0,Calm,Calm,-,N/A,,Clear,0,2012-10-04 00:53:00
8:53 PM,59.0,53.1,81,30.03,10.0,Calm,Calm,-,N/A,,Clear,0,2012-10-04 01:53:00
9:53 PM,55.9,53.1,90,30.04,10.0,Calm,Calm,-,N/A,,Clear,0,2012-10-04 02:53:00
10:53 PM,57.0,53.1,87,30.06,10.0,Calm,Calm,-,N/A,,Clear,0,2012-10-04 03:53:00
11:53 PM,57.9,53.1,84,30.06,10.0,SSE,3.5,-,N/A,,Clear,160,2012-10-04 04:53:00